createdAt,value
2023-05-02T00:02:24.359Z,10.88
2023-05-02T00:04:53.124Z,9.82
2023-05-02T00:07:21.236Z,12.40
2023-05-02T00:09:49.913Z,13.52
2023-05-02T00:12:18.348Z,12.73
2023-05-02T00:14:46.260Z,13.00
2023-05-02T00:17:20.925Z,12.27
2023-05-02T00:19:49.341Z,13.38
2023-05-02T00:22:17.282Z,12.55
2023-05-02T00:24:45.426Z,9.57
2023-05-02T00:27:14.629Z,12.52
2023-05-02T00:29:42.602Z,13.90
2023-05-02T00:32:10.516Z,10.85
2023-05-02T00:34:39.029Z,11.18
2023-05-02T00:37:07.909Z,14.15
2023-05-02T00:39:36.241Z,8.45
2023-05-02T00:42:04.725Z,9.00
2023-05-02T00:44:32.965Z,10.38
2023-05-02T00:47:02.369Z,9.13
2023-05-02T00:49:31.537Z,13.27
2023-05-02T00:51:59.630Z,9.30
2023-05-02T00:54:28.090Z,9.68
2023-05-02T00:56:56.478Z,11.02
2023-05-02T00:59:24.965Z,12.00
2023-05-02T01:02:12.118Z,10.32
2023-05-02T01:05:31.074Z,9.75
2023-05-02T01:08:16.284Z,8.63
2023-05-02T01:11:08.581Z,8.48
2023-05-02T01:13:39.495Z,9.82
2023-05-02T01:16:10.375Z,8.48
2023-05-02T01:18:42.393Z,6.50
2023-05-02T01:21:12.303Z,7.82
2023-05-02T01:24:01.966Z,8.35
2023-05-02T01:26:52.695Z,7.93
2023-05-02T01:29:23.688Z,7.78
2023-05-02T01:31:52.773Z,6.85
2023-05-02T01:34:22.911Z,8.25
2023-05-02T01:36:52.665Z,7.30
2023-05-02T01:39:23.146Z,10.60
2023-05-02T01:41:53.956Z,8.43
2023-05-02T01:44:23.980Z,8.80
2023-05-02T01:46:55.416Z,8.68
2023-05-02T01:49:25.904Z,9.07
2023-05-02T01:51:54.495Z,8.50
2023-05-02T01:54:24.682Z,8.82
2023-05-02T01:56:53.301Z,10.55
2023-05-02T01:59:24.356Z,9.23
2023-05-02T02:01:53.596Z,12.82
2023-05-02T02:04:24.356Z,10.50
2023-05-02T02:06:58.456Z,13.65
2023-05-02T02:09:27.533Z,12.27
2023-05-02T02:12:12.973Z,12.63
2023-05-02T02:14:46.793Z,14.38
2023-05-02T02:20:09.128Z,12.18
2023-05-02T02:22:40.476Z,16.67
2023-05-02T02:25:12.281Z,18.45
2023-05-02T02:27:41.814Z,14.35
2023-05-02T02:30:11.087Z,13.82
2023-05-02T02:32:39.157Z,14.68
2023-05-02T02:35:07.938Z,13.45
2023-05-02T02:37:42.460Z,14.50
2023-05-02T02:40:18.708Z,13.73
2023-05-02T02:43:28.573Z,9.40
2023-05-02T02:46:17.875Z,9.65
2023-05-02T02:49:10.618Z,11.15
2023-05-02T02:51:54.584Z,9.85
2023-05-02T02:54:47.621Z,8.32
2023-05-02T02:57:47.811Z,8.15
2023-05-02T03:00:27.844Z,8.30
2023-05-02T03:02:57.198Z,7.72
2023-05-02T03:05:26.430Z,8.07
2023-05-02T03:07:54.434Z,5.80
2023-05-02T03:10:23.862Z,5.57
2023-05-02T03:13:04.724Z,10.07
2023-05-02T03:15:54.261Z,7.03
2023-05-02T03:18:23.563Z,7.87
2023-05-02T03:20:51.854Z,4.90
2023-05-02T03:23:20.252Z,5.53
2023-05-02T03:25:49.500Z,4.85
2023-05-02T03:28:19.646Z,4.78
2023-05-02T03:30:48.395Z,5.15
2023-05-02T03:33:17.071Z,5.40
2023-05-02T03:35:45.575Z,6.37
2023-05-02T03:38:14.096Z,7.87
2023-05-02T03:40:43.630Z,5.47
2023-05-02T03:43:11.844Z,6.03
2023-05-02T03:45:40.356Z,7.05
2023-05-02T03:48:09.046Z,7.30
2023-05-02T03:50:38.163Z,4.57
2023-05-02T03:53:10.481Z,4.15
2023-05-02T03:55:46.233Z,5.57
2023-05-02T03:58:14.713Z,4.53
2023-05-02T04:00:43.640Z,4.80
2023-05-02T04:03:12.384Z,3.65
2023-05-02T04:05:41.074Z,5.80
2023-05-02T04:08:10.861Z,10.25
2023-05-02T04:10:39.544Z,4.30
2023-05-02T04:13:09.351Z,2.80
2023-05-02T04:15:38.215Z,3.40
2023-05-02T04:18:07.234Z,3.17
2023-05-02T04:20:36.603Z,4.35
2023-05-02T04:23:04.459Z,6.45
2023-05-02T04:25:33.311Z,4.80
2023-05-02T04:28:02.064Z,3.12
2023-05-02T04:30:43.259Z,3.25
2023-05-02T04:33:12.380Z,2.33
2023-05-02T04:35:42.049Z,3.17
2023-05-02T04:38:11.357Z,3.15
2023-05-02T04:40:55.038Z,2.35
2023-05-02T04:43:24.860Z,3.90
2023-05-02T04:45:54.015Z,2.47
2023-05-02T04:48:22.998Z,1.58
2023-05-02T04:50:53.941Z,3.12
2023-05-02T04:53:23.774Z,2.58
2023-05-02T04:55:52.564Z,1.98
2023-05-02T04:58:20.985Z,2.40
2023-05-02T05:00:49.697Z,1.67
2023-05-02T05:03:18.201Z,2.83
2023-05-02T05:05:46.403Z,1.67
2023-05-02T05:08:15.164Z,3.00
2023-05-02T05:10:56.510Z,2.78
2023-05-02T05:13:24.965Z,2.22
2023-05-02T05:15:53.849Z,2.28
2023-05-02T05:18:22.722Z,1.65
2023-05-02T05:20:50.734Z,1.77
2023-05-02T05:23:19.228Z,1.35
2023-05-02T05:25:47.534Z,1.23
2023-05-02T05:28:16.675Z,1.87
2023-05-02T05:30:45.926Z,1.30
2023-05-02T05:33:15.394Z,2.33
2023-05-02T05:35:43.928Z,1.42
2023-05-02T05:38:12.562Z,2.28
2023-05-02T05:40:41.433Z,1.33
2023-05-02T05:43:09.851Z,1.62
2023-05-02T05:45:40.393Z,2.50
2023-05-02T05:48:08.526Z,1.55
2023-05-02T05:50:38.188Z,2.05
2023-05-02T05:53:06.885Z,1.42
2023-05-02T05:55:37.376Z,1.37
2023-05-02T05:58:06.592Z,1.42
2023-05-02T06:00:36.745Z,1.10
2023-05-02T06:03:09.633Z,1.48
2023-05-02T06:05:38.465Z,2.28
2023-05-02T06:08:07.010Z,2.22
2023-05-02T06:10:35.245Z,1.15
2023-05-02T06:13:03.754Z,2.00
2023-05-02T06:15:35.448Z,2.80
2023-05-02T06:18:04.621Z,1.10
2023-05-02T06:20:33.326Z,1.20
2023-05-02T06:23:01.416Z,1.08
2023-05-02T06:25:29.593Z,1.65
2023-05-02T06:27:57.815Z,2.05
2023-05-02T06:30:26.022Z,1.98
2023-05-02T06:32:53.995Z,1.85
2023-05-02T06:35:22.489Z,1.10
2023-05-02T06:37:50.399Z,2.30
2023-05-02T06:40:18.710Z,1.87
2023-05-02T06:42:48.357Z,1.60
2023-05-02T06:45:28.671Z,2.10
2023-05-02T06:47:57.074Z,1.73
2023-05-02T06:50:25.053Z,0.85
2023-05-02T06:52:53.035Z,1.75
2023-05-02T06:55:21.702Z,1.80
2023-05-02T06:57:50.967Z,1.65
2023-05-02T07:00:20.035Z,1.60
2023-05-02T07:02:50.153Z,0.98
2023-05-02T07:05:18.234Z,2.05
2023-05-02T07:07:46.622Z,0.85
2023-05-02T07:10:15.147Z,1.62
2023-05-02T07:12:43.244Z,1.35
2023-05-02T07:15:11.575Z,2.45
2023-05-02T07:17:41.373Z,2.55
2023-05-02T07:20:11.144Z,1.60
2023-05-02T07:22:39.551Z,0.73
2023-05-02T07:25:07.827Z,1.08
2023-05-02T07:27:36.143Z,0.73
2023-05-02T07:30:05.005Z,1.30
2023-05-02T07:32:33.210Z,0.80
2023-05-02T07:35:02.198Z,2.22
2023-05-02T07:37:35.802Z,0.60
2023-05-02T07:40:08.271Z,0.75
2023-05-02T07:42:36.895Z,0.82
2023-05-02T07:45:05.443Z,1.75
2023-05-02T07:47:35.285Z,1.75
2023-05-02T07:50:04.893Z,2.65
2023-05-02T07:52:34.229Z,0.88
2023-05-02T07:55:15.540Z,2.42
2023-05-02T07:57:44.186Z,1.55
2023-05-02T08:00:12.760Z,1.05
2023-05-02T08:02:43.238Z,1.42
2023-05-02T08:05:12.098Z,1.67
2023-05-02T08:07:40.219Z,2.25
2023-05-02T08:10:10.147Z,3.05
2023-05-02T08:12:40.526Z,2.17
2023-05-02T08:15:09.772Z,1.65
2023-05-02T08:17:38.394Z,1.48
2023-05-02T08:20:06.934Z,1.77
2023-05-02T08:22:35.383Z,6.20
2023-05-02T08:25:03.632Z,2.55
2023-05-02T08:27:31.998Z,1.95
2023-05-02T08:30:00.913Z,1.65
2023-05-02T08:32:33.762Z,1.45
2023-05-02T08:35:02.948Z,1.45
2023-05-02T08:37:33.781Z,0.77
2023-05-02T08:40:02.487Z,0.95
2023-05-02T08:42:35.924Z,1.45
2023-05-02T08:45:04.928Z,1.77
2023-05-02T08:47:37.409Z,1.55
2023-05-02T08:50:07.099Z,2.17
2023-05-02T08:52:36.660Z,1.25
2023-05-02T08:55:07.487Z,3.45
2023-05-02T08:57:36.270Z,1.85
2023-05-02T09:00:05.115Z,2.35
2023-05-02T09:02:44.135Z,0.80
2023-05-02T09:05:19.957Z,0.90
2023-05-02T09:07:49.736Z,2.37
2023-05-02T09:10:18.396Z,2.35
2023-05-02T09:12:47.813Z,0.93
2023-05-02T09:15:20.750Z,1.83
2023-05-02T09:17:50.411Z,0.93
2023-05-02T09:20:18.545Z,1.67
2023-05-02T09:22:53.622Z,2.12
2023-05-02T09:25:22.087Z,1.67
2023-05-02T09:27:56.227Z,2.20
2023-05-02T09:30:26.568Z,2.62
2023-05-02T09:32:57.729Z,1.37
2023-05-02T09:35:26.461Z,1.40
2023-05-02T09:37:56.397Z,1.52
2023-05-02T09:40:24.846Z,2.05
2023-05-02T09:42:53.566Z,1.50
2023-05-02T09:45:24.619Z,1.05
2023-05-02T09:47:54.179Z,1.80
2023-05-02T09:50:39.170Z,1.95
2023-05-02T09:53:10.034Z,1.75
2023-05-02T09:55:38.602Z,1.55
2023-05-02T09:58:07.016Z,2.62
2023-05-02T10:00:45.696Z,1.30
2023-05-02T10:03:18.074Z,3.03
2023-05-02T10:05:47.610Z,1.42
2023-05-02T10:08:18.986Z,1.92
2023-05-02T10:10:55.564Z,1.95
2023-05-02T10:13:27.819Z,2.03
2023-05-02T10:16:01.066Z,2.80
2023-05-02T10:18:41.280Z,0.85
2023-05-02T10:21:12.076Z,1.58
2023-05-02T10:23:46.912Z,1.17
2023-05-02T10:26:16.504Z,1.02
2023-05-02T10:28:46.231Z,1.02
2023-05-02T10:31:16.555Z,1.70
2023-05-02T10:33:47.402Z,2.50
2023-05-02T10:36:16.289Z,1.05
2023-05-02T10:38:44.730Z,1.62
2023-05-02T10:41:23.575Z,2.00
2023-05-02T10:43:52.477Z,1.25
2023-05-02T10:46:38.463Z,7.87
2023-05-02T10:49:09.137Z,1.95
2023-05-02T10:51:39.853Z,3.40
2023-05-02T10:54:17.754Z,1.65
2023-05-02T10:57:03.480Z,1.95
2023-05-02T10:59:35.248Z,2.33
2023-05-02T11:02:06.227Z,1.50
2023-05-02T11:07:22.435Z,6.57
2023-05-02T11:09:51.016Z,3.90
2023-05-02T11:12:50.568Z,2.53
2023-05-02T11:15:32.974Z,1.30
2023-05-02T11:18:13.733Z,1.40
2023-05-02T11:20:46.121Z,1.92
2023-05-02T11:23:22.314Z,1.80
2023-05-02T11:26:01.363Z,1.00
2023-05-02T11:28:41.413Z,1.02
2023-05-02T11:31:31.118Z,1.42
2023-05-02T11:34:00.810Z,1.90
2023-05-02T11:36:34.024Z,1.77
2023-05-02T11:39:06.269Z,4.87
2023-05-02T11:41:42.007Z,1.55
2023-05-02T11:44:10.711Z,1.65
2023-05-02T11:46:42.456Z,3.25
2023-05-02T11:49:14.851Z,1.33
2023-05-02T11:51:43.788Z,1.52
2023-05-02T11:54:20.374Z,1.65
2023-05-02T11:56:48.998Z,1.35
2023-05-02T11:59:17.208Z,1.35
2023-05-02T12:01:49.807Z,1.30
2023-05-02T12:04:22.715Z,1.98
2023-05-02T12:06:58.115Z,2.00
2023-05-02T12:09:26.716Z,2.37
2023-05-02T12:11:55.249Z,1.73
2023-05-02T12:14:30.425Z,3.45
2023-05-02T12:17:00.205Z,3.12
2023-05-02T12:19:28.528Z,3.67
2023-05-02T12:21:56.549Z,2.78
2023-05-02T12:24:24.961Z,2.42
2023-05-02T12:27:16.492Z,3.62
2023-05-02T12:29:47.060Z,1.75
2023-05-02T12:32:16.151Z,1.85
2023-05-02T12:34:44.395Z,4.55
2023-05-02T12:37:12.759Z,2.28
2023-05-02T12:39:43.241Z,3.78
2023-05-02T12:42:12.928Z,1.10
2023-05-02T12:44:45.995Z,1.87
2023-05-02T12:47:16.124Z,1.95
2023-05-02T12:49:57.501Z,3.00
2023-05-02T12:52:49.350Z,2.30
2023-05-02T12:55:18.434Z,2.00
2023-05-02T12:57:49.076Z,2.87
2023-05-02T13:00:20.037Z,1.62
2023-05-02T13:02:48.389Z,2.70
2023-05-02T13:05:20.961Z,5.57
2023-05-02T13:07:53.213Z,1.87
2023-05-02T13:10:27.647Z,2.92
2023-05-02T13:13:00.058Z,2.40
2023-05-02T13:15:28.406Z,2.47
2023-05-02T13:20:42.863Z,3.78
2023-05-02T13:23:17.191Z,2.22
2023-05-02T13:25:45.154Z,2.92
2023-05-02T13:28:15.830Z,3.90
2023-05-02T13:30:43.848Z,2.65
2023-05-02T13:33:11.906Z,1.80
2023-05-02T13:35:49.891Z,4.37
2023-05-02T13:38:17.912Z,2.12
2023-05-02T13:40:46.680Z,1.90
2023-05-02T13:43:24.036Z,2.65
2023-05-02T13:45:52.946Z,2.78
2023-05-02T13:48:21.183Z,3.92
2023-05-02T13:50:49.289Z,3.12
2023-05-02T13:53:17.732Z,2.62
2023-05-02T13:55:45.833Z,3.55
2023-05-02T13:58:13.992Z,1.98
2023-05-02T14:00:42.561Z,4.12
2023-05-02T14:03:16.887Z,2.65
2023-05-02T14:05:45.000Z,2.28
2023-05-02T14:08:18.612Z,3.05
2023-05-02T14:10:47.206Z,5.70
2023-05-02T14:13:15.628Z,6.57
2023-05-02T14:15:43.548Z,3.83
2023-05-02T14:18:11.702Z,6.28
2023-05-02T14:20:40.288Z,4.68
2023-05-02T14:23:08.315Z,7.68
2023-05-02T14:25:55.037Z,5.37
2023-05-02T14:28:24.038Z,3.42
2023-05-02T14:30:52.539Z,3.10
2023-05-02T14:33:27.786Z,8.48
2023-05-02T14:35:56.736Z,2.70
2023-05-02T14:38:24.964Z,2.67
2023-05-02T14:40:53.202Z,3.42
2023-05-02T14:43:22.454Z,5.43
2023-05-02T14:45:50.834Z,4.70
2023-05-02T14:48:18.904Z,3.92
2023-05-02T14:50:47.308Z,3.80
2023-05-02T14:53:15.391Z,5.25
2023-05-02T14:55:44.347Z,2.70
2023-05-02T14:58:12.813Z,5.32
2023-05-02T15:00:41.019Z,2.70
2023-05-02T15:03:10.273Z,4.78
2023-05-02T15:05:40.608Z,2.80
2023-05-02T15:08:08.751Z,4.00
2023-05-02T15:10:40.643Z,3.03
2023-05-02T15:13:09.240Z,6.15
2023-05-02T15:15:37.780Z,6.37
2023-05-02T15:18:06.219Z,9.15
2023-05-02T15:20:35.067Z,5.65
2023-05-02T15:23:04.173Z,7.05
2023-05-02T15:25:32.798Z,4.68
2023-05-02T15:28:02.897Z,4.28
2023-05-02T15:30:31.148Z,8.43
2023-05-02T15:32:59.299Z,4.60
2023-05-02T15:35:27.827Z,5.78
2023-05-02T15:37:58.258Z,4.50
2023-05-02T15:40:28.077Z,4.47
2023-05-02T15:42:56.603Z,19.50
2023-05-02T15:45:27.232Z,18.67
2023-05-02T15:47:55.348Z,13.93
2023-05-02T15:50:24.551Z,9.45
2023-05-02T15:52:53.647Z,4.78
2023-05-02T15:55:22.103Z,6.53
2023-05-02T15:57:52.445Z,4.93
2023-05-02T16:00:21.669Z,5.32
2023-05-02T16:02:50.772Z,4.87
2023-05-02T16:05:19.220Z,5.75
2023-05-02T16:07:47.513Z,3.90
2023-05-02T16:10:16.034Z,4.62
2023-05-02T16:12:44.042Z,5.57
2023-05-02T16:15:12.083Z,6.00
2023-05-02T16:17:42.340Z,4.95
2023-05-02T16:20:12.948Z,4.37
2023-05-02T16:22:46.873Z,8.32
2023-05-02T16:25:17.034Z,7.07
2023-05-02T16:27:45.565Z,14.13
2023-05-02T16:30:14.097Z,7.12
2023-05-02T16:32:42.282Z,4.10
2023-05-02T16:35:13.539Z,3.65
2023-05-02T16:37:42.347Z,4.07
2023-05-02T16:40:11.586Z,3.97
2023-05-02T16:42:40.483Z,6.25
2023-05-02T16:45:09.024Z,6.90
2023-05-02T16:47:38.023Z,12.98
2023-05-02T16:50:06.943Z,5.00
2023-05-02T16:52:37.415Z,5.07
2023-05-02T16:55:06.824Z,7.47
2023-05-02T16:57:34.779Z,4.57
2023-05-02T17:00:04.508Z,5.90
2023-05-02T17:02:34.610Z,5.10
2023-05-02T17:05:02.631Z,6.35
2023-05-02T17:07:31.618Z,6.00
2023-05-02T17:10:00.304Z,8.05
2023-05-02T17:12:28.700Z,6.15
2023-05-02T17:14:56.837Z,9.63
2023-05-02T17:17:25.968Z,13.15
2023-05-02T17:19:54.132Z,35.15
2023-05-02T17:22:22.394Z,39.50
2023-05-02T17:24:53.327Z,29.02
2023-05-02T17:27:21.460Z,35.95
2023-05-02T17:29:49.482Z,23.38
2023-05-02T17:32:17.955Z,13.55
2023-05-02T17:34:46.175Z,11.23
2023-05-02T17:37:14.368Z,8.45
2023-05-02T17:39:43.127Z,8.07
2023-05-02T17:42:11.044Z,8.90
2023-05-02T17:44:38.922Z,7.68
2023-05-02T17:47:07.275Z,7.43
2023-05-02T17:49:36.004Z,6.32
2023-05-02T17:52:05.545Z,10.57
2023-05-02T17:54:34.489Z,14.27
2023-05-02T17:57:02.415Z,8.35
2023-05-02T17:59:30.322Z,8.77
2023-05-02T18:01:58.804Z,14.70
2023-05-02T18:04:27.156Z,11.57
2023-05-02T18:06:55.903Z,13.15
2023-05-02T18:09:23.771Z,10.93
2023-05-02T18:11:52.631Z,10.43
2023-05-02T18:14:23.846Z,10.30
2023-05-02T18:16:52.285Z,11.35
2023-05-02T18:19:20.374Z,8.02
2023-05-02T18:21:48.266Z,11.10
2023-05-02T18:24:16.597Z,13.05
2023-05-02T18:26:44.680Z,8.23
2023-05-02T18:29:12.699Z,12.55
2023-05-02T18:31:42.496Z,9.90
2023-05-02T18:34:10.656Z,9.32
2023-05-02T18:36:39.541Z,9.50
2023-05-02T18:39:08.596Z,10.80
2023-05-02T18:41:37.085Z,8.65
2023-05-02T18:44:10.938Z,8.63
2023-05-02T18:46:39.442Z,8.98
2023-05-02T18:49:09.602Z,14.10
2023-05-02T18:51:37.671Z,16.10
2023-05-02T18:54:06.368Z,12.85
2023-05-02T18:56:34.518Z,14.20
2023-05-02T18:59:02.580Z,12.35
2023-05-02T19:01:31.013Z,11.40
2023-05-02T19:04:01.586Z,10.93
2023-05-02T19:06:30.772Z,9.38
2023-05-02T19:08:59.906Z,9.68
2023-05-02T19:11:44.573Z,8.40
2023-05-02T19:14:14.042Z,7.22
2023-05-02T19:16:42.238Z,9.02
2023-05-02T19:19:25.675Z,7.65
2023-05-02T19:21:54.460Z,6.20
2023-05-02T19:24:36.230Z,6.70
2023-05-02T19:27:08.485Z,7.70
2023-05-02T19:29:37.309Z,6.97
2023-05-02T19:32:06.132Z,6.18
2023-05-02T19:34:46.525Z,11.75
2023-05-02T19:37:29.358Z,5.75
2023-05-02T19:39:58.492Z,6.60
2023-05-02T19:42:27.519Z,7.62
2023-05-02T19:44:55.496Z,6.82
2023-05-02T19:47:23.596Z,7.40
2023-05-02T19:49:52.111Z,5.85
2023-05-02T19:52:20.363Z,9.32
2023-05-02T19:54:51.656Z,7.45
2023-05-02T19:57:20.300Z,7.90
2023-05-02T19:59:48.486Z,9.35
2023-05-02T20:02:16.553Z,9.52
2023-05-02T20:04:46.512Z,8.57
2023-05-02T20:07:14.668Z,8.18
2023-05-02T20:09:42.626Z,6.82
2023-05-02T20:12:10.965Z,5.07
2023-05-02T20:14:41.198Z,5.40
2023-05-02T20:17:09.424Z,5.62
2023-05-02T20:19:38.181Z,7.70
2023-05-02T20:22:06.399Z,5.45
2023-05-02T20:24:34.410Z,5.47
2023-05-02T20:27:03.089Z,7.12
2023-05-02T20:29:31.106Z,6.00
2023-05-02T20:31:59.689Z,6.25
2023-05-02T20:34:28.046Z,6.90
2023-05-02T20:36:56.216Z,5.75
2023-05-02T20:39:25.861Z,6.20
2023-05-02T20:42:06.860Z,8.13
2023-05-02T20:44:35.102Z,5.53
2023-05-02T20:47:06.824Z,8.10
2023-05-02T20:49:35.156Z,5.33
2023-05-02T20:52:06.726Z,5.32
2023-05-02T20:54:35.140Z,6.80
2023-05-02T20:57:04.120Z,4.82
2023-05-02T20:59:32.463Z,5.18
2023-05-02T21:02:00.506Z,6.30
2023-05-02T21:04:29.170Z,4.68
2023-05-02T21:06:57.344Z,5.20
2023-05-02T21:09:25.328Z,4.30
2023-05-02T21:11:53.813Z,5.18
2023-05-02T21:14:24.924Z,6.72
2023-05-02T21:16:53.878Z,6.80
2023-05-02T21:19:22.097Z,5.00
2023-05-02T21:21:50.298Z,4.10
2023-05-02T21:24:18.728Z,4.22
2023-05-02T21:26:46.823Z,4.37
2023-05-02T21:29:15.332Z,4.80
2023-05-02T21:31:43.748Z,5.50
2023-05-02T21:34:11.767Z,5.80
2023-05-02T21:36:39.727Z,5.12
2023-05-02T21:39:08.141Z,3.95
2023-05-02T21:41:35.984Z,6.00
2023-05-02T21:44:03.964Z,5.03
2023-05-02T21:46:32.361Z,3.85
2023-05-02T21:49:00.302Z,6.57
2023-05-02T21:51:28.284Z,5.93
2023-05-02T21:53:56.568Z,3.40
2023-05-02T21:56:24.420Z,5.37
2023-05-02T21:58:52.380Z,3.47
2023-05-02T22:01:21.032Z,4.87
2023-05-02T22:03:49.358Z,6.20
2023-05-02T22:06:17.657Z,5.93
2023-05-02T22:08:45.656Z,4.75
2023-05-02T22:11:15.637Z,3.72
2023-05-02T22:13:43.682Z,4.50
2023-05-02T22:16:11.727Z,6.37
2023-05-02T22:18:40.108Z,4.82
2023-05-02T22:21:08.552Z,5.07
2023-05-02T22:23:36.462Z,4.55
2023-05-02T22:26:05.053Z,4.57
2023-05-02T22:28:33.103Z,4.28
2023-05-02T22:31:01.162Z,4.30
2023-05-02T22:33:29.778Z,5.18
2023-05-02T22:35:58.403Z,5.50
2023-05-02T22:38:26.411Z,5.18
2023-05-02T22:40:54.824Z,4.32
2023-05-02T22:43:22.901Z,4.80
2023-05-02T22:45:51.632Z,3.92
2023-05-02T22:48:20.134Z,4.57
2023-05-02T22:50:49.156Z,5.57
2023-05-02T22:53:17.264Z,5.90
2023-05-02T22:55:45.597Z,4.87
2023-05-02T22:58:13.643Z,4.65
2023-05-02T23:00:41.815Z,3.08
2023-05-02T23:03:11.308Z,3.15
2023-05-02T23:05:39.456Z,4.37
2023-05-02T23:08:07.357Z,2.78
2023-05-02T23:10:35.692Z,6.22
2023-05-02T23:13:03.520Z,4.68
2023-05-02T23:15:31.532Z,4.15
2023-05-02T23:18:00.015Z,2.85
2023-05-02T23:20:28.071Z,7.18
2023-05-02T23:22:56.685Z,3.75
2023-05-02T23:25:27.631Z,5.57
2023-05-02T23:27:55.754Z,6.82
2023-05-02T23:30:23.665Z,4.65
2023-05-02T23:32:52.186Z,3.67
2023-05-02T23:35:20.612Z,4.07
2023-05-02T23:37:49.524Z,3.42
2023-05-02T23:40:17.920Z,4.87
2023-05-02T23:42:46.519Z,4.90
2023-05-02T23:45:14.610Z,6.03
2023-05-02T23:47:43.057Z,3.65
2023-05-02T23:50:11.381Z,4.72
2023-05-02T23:52:39.545Z,3.70
2023-05-02T23:55:10.964Z,8.02
2023-05-02T23:57:39.224Z,6.12
